CheckWX is a tool to help pilots better visualize weather data.  It is not intended as a substitute for an official pre-flight weather briefing.

11:17:37 UTC

KCEW METAR
Bob Sikes Airport
Crestview, Florida, USA
Current

1 hour ago

KCEW 060953Z AUTO 00000KT 6SM BR CLR 13/12 A3006 RMK AO2 SLP178 T01280117
Observed
Apr-6 @ 09:53 UTC
Visibility
Flight Rules
VFR
Conditions
Mist
Cloud Levels
  • Clear skies
Temperature
13°C / 55°F
Dewpoint
12°C / 54°F
Humidity
94%
Altimeter
30.06" Hg
Pressure
1017.92 hPa
Previous

2 hours ago

KCEW 060853Z AUTO 00000KT 7SM CLR 13/12 A3006 RMK AO2 SLP177 T01330122 56004
Observed
Apr-6 @ 08:53 UTC
Visibility
Flight Rules
VFR
Cloud Levels
  • Clear skies
Temperature
13°C / 55°F
Dewpoint
12°C / 54°F
Humidity
94%
Altimeter
30.06" Hg
Pressure
1017.92 hPa
Previous

3 hours ago

KCEW 060753Z AUTO 00000KT 8SM CLR 13/12 A3007 RMK AO2 SLP179 T01330122
Observed
Apr-6 @ 07:53 UTC
Visibility
Flight Rules
VFR
Cloud Levels
  • Clear skies
Temperature
13°C / 55°F
Dewpoint
12°C / 54°F
Humidity
94%
Altimeter
30.07" Hg
Pressure
1018.32 hPa